Time;durP1;ratioP1;P1;durP2;ratioP2;P2;SDS_P1;SDS_P2;PMS_P1;PMS_P2;Temp;Humidity;BMP_temperature;BMP_pressure;BME280_temperature;BME280_humidity;BME280_pressure;Samples;Min_cycle;Max_cycle;Signal;HPM_P1;HPM_P2
2023/07/12 00:01:37;;;;;;;7.70;6.97;;;;;;;27.56;50.11;99849.53;5061706;28;20257;-63
2023/07/12 00:04:02;;;;;;;7.70;6.93;;;;;;;27.43;50.37;99850.06;5061535;28;20033;-63
2023/07/12 00:06:38;;;;;;;10.13;6.63;;;;;;;27.29;51.06;99846.22;5061477;28;20226;-64
2023/07/12 00:09:06;;;;;;;7.50;6.50;;;;;;;27.18;51.20;99852.75;5060997;28;20036;-63
2023/07/12 00:11:31;;;;;;;8.43;6.85;;;;;;;27.27;51.20;99842.97;5060729;28;20099;-64
2023/07/12 00:13:56;;;;;;;7.43;6.72;;;;;;;27.23;51.35;99844.59;5060408;28;20048;-63
2023/07/12 00:16:37;;;;;;;8.18;6.30;;;;;;;27.06;51.61;99849.44;5060704;28;20025;-64
2023/07/12 00:19:04;;;;;;;10.18;7.35;;;;;;;27.15;51.58;99854.09;5060923;28;20064;-64
2023/07/12 00:21:30;;;;;;;7.55;6.75;;;;;;;27.10;51.89;99859.50;5061130;28;20092;-63
2023/07/12 00:23:57;;;;;;;7.47;6.60;;;;;;;27.14;52.10;99848.94;5061168;28;20045;-63
2023/07/12 00:26:27;;;;;;;8.18;7.28;;;;;;;27.22;51.56;99859.28;5061591;28;20044;-63
2023/07/12 00:28:54;;;;;;;8.02;7.07;;;;;;;27.22;51.74;99849.22;5060968;28;20033;-63
2023/07/12 00:31:20;;;;;;;8.07;7.03;;;;;;;27.28;51.77;99850.03;5060724;28;20037;-63
2023/07/12 00:33:45;;;;;;;10.10;7.05;;;;;;;27.30;51.59;99842.44;5060688;28;20052;-63
2023/07/12 00:36:23;;;;;;;8.55;7.25;;;;;;;27.30;51.91;99840.53;5060684;28;20321;-63
2023/07/12 00:38:49;;;;;;;8.65;7.53;;;;;;;27.37;51.96;99836.72;5060862;28;20090;-63
2023/07/12 00:41:25;;;;;;;9.10;7.25;;;;;;;27.27;51.92;99842.97;5059974;28;20053;-63
2023/07/12 00:44:04;;;;;;;9.88;6.97;;;;;;;27.07;52.24;99845.66;5060345;28;20257;-64
2023/07/12 00:46:38;;;;;;;8.57;7.07;;;;;;;26.79;53.53;99846.84;5060664;28;20044;-64
2023/07/12 00:49:04;;;;;;;9.40;7.53;;;;;;;26.73;53.71;99852.25;5060205;28;20319;-63
2023/07/12 00:51:39;;;;;;;8.10;7.30;;;;;;;26.81;53.35;99847.41;5060395;28;20037;-64
2023/07/12 00:54:14;;;;;;;9.73;8.32;;;;;;;26.66;54.21;99845.44;5060578;28;20047;-63
2023/07/12 00:56:39;;;;;;;12.75;8.55;;;;;;;26.57;54.14;99841.59;5059807;28;20079;-63
2023/07/12 00:59:11;;;;;;;9.95;7.95;;;;;;;26.50;54.49;99838.31;5058785;28;20036;-63
2023/07/12 01:01:37;;;;;;;8.85;7.88;;;;;;;26.51;54.40;99848.91;5059399;28;20045;-63
2023/07/12 01:04:03;;;;;;;8.80;7.90;;;;;;;26.56;54.48;99840.78;5059410;28;20049;-64
2023/07/12 01:06:30;;;;;;;9.18;7.60;;;;;;;26.50;54.54;99832.88;5059513;28;20097;-63
2023/07/12 01:09:03;;;;;;;12.40;8.65;;;;;;;26.44;54.84;99834.75;5059698;28;20366;-63
2023/07/12 01:11:30;;;;;;;9.88;8.43;;;;;;;26.34;55.09;99821.94;5060818;28;20053;-64
2023/07/12 01:13:55;;;;;;;10.02;7.78;;;;;;;26.36;54.97;99832.53;5059609;28;20323;-63
2023/07/12 01:16:22;;;;;;;10.82;8.57;;;;;;;26.26;55.09;99833.28;5059752;28;20063;-63
2023/07/12 01:18:48;;;;;;;9.32;7.97;;;;;;;26.34;54.89;99827.38;5058861;28;20048;-63
2023/07/12 01:21:20;;;;;;;8.88;7.97;;;;;;;26.02;56.58;99823.91;5059063;28;20040;-63
2023/07/12 01:23:46;;;;;;;9.98;7.80;;;;;;;25.86;57.29;99827.53;5059500;28;20206;-63
2023/07/12 01:26:42;;;;;;;10.32;8.18;;;;;;;25.52;58.94;99824.25;5059977;28;20338;-63
2023/07/12 01:29:09;;;;;;;10.85;9.60;;;;;;;25.42;59.18;99819.56;5059920;28;20041;-63
2023/07/12 01:31:35;;;;;;;11.82;8.75;;;;;;;25.62;59.33;99814.31;5059878;28;20279;-63
2023/07/12 01:34:01;;;;;;;10.82;9.55;;;;;;;25.62;58.52;99817.03;5059622;28;20060;-63
2023/07/12 01:36:29;;;;;;;10.13;8.52;;;;;;;25.76;57.75;99820.16;5060436;28;20044;-63
2023/07/12 01:38:57;;;;;;;15.07;8.95;;;;;;;25.90;56.83;99826.75;5059330;28;20069;-64
2023/07/12 01:41:23;;;;;;;12.77;9.25;;;;;;;25.96;56.84;99833.03;5059160;28;20082;-63
2023/07/12 01:43:49;;;;;;;9.48;8.30;;;;;;;25.67;57.25;99824.41;5058941;28;20115;-63
2023/07/12 01:46:15;;;;;;;11.73;9.57;;;;;;;25.77;56.93;99821.78;5059494;28;20092;-63
2023/07/12 01:48:41;;;;;;;11.27;9.15;;;;;;;25.83;56.79;99815.31;5059017;28;20104;-63
2023/07/12 01:51:07;;;;;;;12.15;8.90;;;;;;;25.90;56.68;99824.06;5058999;28;20353;-63
2023/07/12 01:53:34;;;;;;;12.77;8.88;;;;;;;25.84;57.30;99824.28;5058883;28;20040;-63
2023/07/12 01:56:01;;;;;;;11.93;8.85;;;;;;;25.73;57.52;99820.66;5058800;28;20379;-63
2023/07/12 01:58:27;;;;;;;10.45;8.45;;;;;;;25.77;57.23;99821.78;5058571;28;20071;-63
2023/07/12 02:00:53;;;;;;;10.73;8.77;;;;;;;25.78;57.62;99824.25;5059172;28;20044;-63
2023/07/12 02:03:20;;;;;;;11.48;8.70;;;;;;;25.71;57.20;99820.13;5059267;28;20033;-64
2023/07/12 02:05:46;;;;;;;12.75;8.82;;;;;;;25.70;57.02;99816.59;5058914;28;20731;-63
2023/07/12 02:08:12;;;;;;;11.57;9.20;;;;;;;25.59;57.22;99833.00;5058801;28;20108;-63
2023/07/12 02:10:38;;;;;;;11.85;9.63;;;;;;;25.48;57.18;99826.66;5057870;28;20033;-63
2023/07/12 02:13:04;;;;;;;12.25;9.23;;;;;;;25.26;58.16;99829.44;5058191;28;20116;-64
2023/07/12 02:15:29;;;;;;;10.95;8.88;;;;;;;25.41;57.67;99826.88;5058237;28;20047;-63
2023/07/12 02:17:55;;;;;;;11.32;9.43;;;;;;;25.59;57.24;99833.00;5059105;28;20070;-64
2023/07/12 02:20:21;;;;;;;12.23;9.15;;;;;;;25.70;57.15;99834.75;5058865;28;20052;-63
2023/07/12 02:22:49;;;;;;;12.98;8.93;;;;;;;25.66;57.42;99844.47;5059487;28;20116;-64
2023/07/12 02:25:15;;;;;;;11.88;9.45;;;;;;;25.60;57.46;99846.28;5058417;28;20074;-63
2023/07/12 02:27:41;;;;;;;9.98;8.70;;;;;;;25.76;58.08;99858.13;5058038;28;20048;-63
2023/07/12 02:30:33;;;;;;;14.80;9.07;;;;;;;25.86;58.33;99850.06;5058231;28;20037;-63
2023/07/12 02:32:58;;;;;;;10.07;8.70;;;;;;;25.93;57.37;99847.13;5052974;28;20036;-63
2023/07/12 02:35:27;;;;;;;9.80;8.40;;;;;;;25.99;57.25;99841.47;5040571;28;20067;-63
2023/07/12 02:37:54;;;;;;;10.82;8.63;;;;;;;25.99;57.34;99843.38;5058386;28;20040;-63
2023/07/12 02:40:19;;;;;;;11.23;8.45;;;;;;;25.99;57.79;99844.19;5058234;28;20279;-64
2023/07/12 02:42:45;;;;;;;12.98;8.93;;;;;;;26.01;57.52;99843.97;5058063;28;20036;-64
2023/07/12 02:45:10;;;;;;;11.20;8.63;;;;;;;25.95;58.48;99847.69;5057950;28;20039;-64
2023/07/12 02:47:36;;;;;;;13.02;8.98;;;;;;;25.99;57.28;99849.63;5058128;28;20298;-63
2023/07/12 02:50:03;;;;;;;12.82;9.65;;;;;;;26.05;57.55;99859.47;5057667;28;20062;-63
2023/07/12 02:52:29;;;;;;;12.15;9.68;;;;;;;26.05;57.43;99856.75;5059332;28;20029;-63
2023/07/12 02:54:54;;;;;;;10.38;8.98;;;;;;;25.98;57.74;99845.28;5058573;28;20094;-63
2023/07/12 02:57:20;;;;;;;11.27;9.30;;;;;;;25.91;58.13;99857.41;5057869;28;20037;-63
2023/07/12 02:59:45;;;;;;;11.70;9.68;;;;;;;25.94;58.66;99862.31;5058039;28;20037;-63
2023/07/12 03:02:12;;;;;;;12.63;8.88;;;;;;;25.93;58.92;99858.78;5058251;28;20052;-63
2023/07/12 03:04:38;;;;;;;10.00;8.52;;;;;;;25.76;58.17;99867.06;5058281;28;20037;-63
2023/07/12 03:07:03;;;;;;;13.23;9.80;;;;;;;25.45;60.57;99876.81;5058369;28;20049;-64
2023/07/12 03:09:29;;;;;;;13.48;9.60;;;;;;;25.19;62.05;99882.22;5058357;28;20345;-63
2023/07/12 03:11:55;;;;;;;11.70;9.65;;;;;;;25.04;60.26;99891.81;5057999;28;20369;-63
2023/07/12 03:14:21;;;;;;;12.00;9.90;;;;;;;25.15;61.38;99881.91;5057946;28;20052;-63
2023/07/12 03:16:47;;;;;;;11.57;9.07;;;;;;;25.16;62.16;99888.13;5057632;28;20060;-64
2023/07/12 03:19:17;;;;;;;11.27;9.13;;;;;;;25.27;61.87;99889.88;5057554;28;20100;-63
2023/07/12 03:21:42;;;;;;;14.48;9.95;;;;;;;25.33;60.79;99881.56;5058233;28;20049;-64
2023/07/12 03:24:09;;;;;;;10.77;8.70;;;;;;;25.43;60.28;99884.38;5061753;28;20033;-64
2023/07/12 03:26:36;;;;;;;9.93;8.75;;;;;;;25.48;60.39;99888.19;5062215;28;20052;-63
2023/07/12 03:29:01;;;;;;;11.18;8.43;;;;;;;25.55;59.37;99889.63;5061333;28;20044;-63
2023/07/12 03:31:30;;;;;;;10.35;7.95;;;;;;;25.65;57.83;99888.91;5061857;28;20139;-63
2023/07/12 03:33:57;;;;;;;11.73;8.32;;;;;;;25.67;56.10;99887.59;5061377;28;20037;-64
2023/07/12 03:36:28;;;;;;;11.15;8.30;;;;;;;25.77;54.69;99884.16;5061824;28;20060;-63
2023/07/12 03:38:54;;;;;;;9.43;8.02;;;;;;;25.65;54.48;99897.91;5062033;28;20083;-64
2023/07/12 03:41:20;;;;;;;10.00;8.32;;;;;;;25.73;54.29;99891.19;5061911;28;20036;-63
2023/07/12 03:43:46;;;;;;;11.43;7.70;;;;;;;25.76;53.54;99896.91;5061455;28;20292;-63
2023/07/12 03:46:12;;;;;;;10.35;8.23;;;;;;;25.77;54.20;99898.53;5062064;28;20025;-63
2023/07/12 03:48:38;;;;;;;11.80;8.50;;;;;;;25.86;53.98;99896.19;5061390;28;20060;-63
2023/07/12 03:51:03;;;;;;;11.27;7.47;;;;;;;25.94;53.82;99903.84;5061233;28;20235;-64
2023/07/12 03:53:29;;;;;;;12.93;8.15;;;;;;;26.04;54.17;99906.66;5061347;28;20338;-63
2023/07/12 03:55:58;;;;;;;10.35;7.65;;;;;;;26.10;54.04;99907.53;5061032;28;20020;-64
2023/07/12 03:58:27;;;;;;;12.65;7.88;;;;;;;26.15;53.51;99902.13;5061007;28;20041;-64
2023/07/12 04:00:53;;;;;;;13.15;7.93;;;;;;;26.07;53.96;99908.88;5060502;28;20036;-63
2023/07/12 04:03:19;;;;;;;9.63;7.20;;;;;;;26.18;53.44;99903.50;5043015;28;20033;-63
2023/07/12 04:05:47;;;;;;;10.88;8.23;;;;;;;26.32;53.64;99910.97;5061364;28;20128;-64
2023/07/12 04:08:13;;;;;;;12.30;7.47;;;;;;;26.42;53.58;99909.41;5061718;28;20048;-63
2023/07/12 04:10:38;;;;;;;10.27;7.25;;;;;;;26.45;53.08;99914.31;5061462;28;20319;-63
2023/07/12 04:13:04;;;;;;;13.10;7.90;;;;;;;26.33;53.25;99911.78;5060820;28;20370;-64
2023/07/12 04:15:30;;;;;;;10.80;7.53;;;;;;;26.39;53.16;99916.19;5061123;28;20100;-63
2023/07/12 04:17:55;;;;;;;11.70;8.00;;;;;;;26.37;53.52;99918.34;5060882;28;20036;-63
2023/07/12 04:20:21;;;;;;;9.70;7.15;;;;;;;26.50;53.73;99920.59;5060377;28;20067;-63
2023/07/12 04:22:50;;;;;;;10.60;7.75;;;;;;;26.59;53.43;99927.16;5060766;28;20037;-64
2023/07/12 04:25:15;;;;;;;9.60;7.22;;;;;;;26.61;53.59;99929.63;5060771;28;20048;-63
2023/07/12 04:27:41;;;;;;;11.93;7.43;;;;;;;26.75;53.53;99924.53;5060869;28;20230;-63
2023/07/12 04:30:09;;;;;;;13.75;8.60;;;;;;;26.79;52.91;99933.78;5060303;28;20049;-63
2023/07/12 04:32:34;;;;;;;9.05;7.38;;;;;;;26.82;52.00;99935.97;5061131;28;20087;-64
2023/07/12 04:35:00;;;;;;;9.93;7.10;;;;;;;26.90;51.79;99943.63;5059838;28;20041;-63
2023/07/12 04:37:26;;;;;;;9.05;7.95;;;;;;;26.99;52.00;99942.06;5060932;28;20233;-63
2023/07/12 04:39:52;;;;;;;11.95;7.63;;;;;;;27.09;51.09;99935.88;5060683;28;20029;-63
2023/07/12 04:42:18;;;;;;;10.88;7.93;;;;;;;27.23;51.24;99935.13;5060183;28;20384;-63
2023/07/12 04:44:44;;;;;;;10.60;7.75;;;;;;;27.33;51.35;99937.88;5060426;28;20059;-63
2023/07/12 04:47:09;;;;;;;12.00;8.25;;;;;;;27.50;50.96;99939.53;5060117;28;20033;-63
2023/07/12 04:49:35;;;;;;;13.45;8.18;;;;;;;27.56;51.00;99938.47;5060402;28;20037;-64
2023/07/12 04:52:00;;;;;;;12.48;7.50;;;;;;;27.69;50.70;99935.25;5060663;28;20048;-63
2023/07/12 04:54:26;;;;;;;11.15;8.13;;;;;;;27.86;50.19;99929.56;5060444;28;20043;-63
2023/07/12 04:56:52;;;;;;;16.38;8.15;;;;;;;27.94;49.62;99931.75;5060420;28;20043;-63
2023/07/12 04:59:18;;;;;;;12.02;7.97;;;;;;;27.95;49.63;99939.63;5060101;28;20059;-64
2023/07/12 05:01:44;;;;;;;13.77;8.38;;;;;;;27.99;49.33;99931.75;5060341;28;20056;-63
2023/07/12 05:04:09;;;;;;;11.23;7.88;;;;;;;28.05;50.59;99938.81;5060268;28;20330;-63
2023/07/12 05:06:35;;;;;;;15.82;7.75;;;;;;;28.09;50.63;99936.38;5060671;28;20041;-63
2023/07/12 05:09:00;;;;;;;11.60;6.93;;;;;;;28.12;49.27;99941.31;5059892;28;20055;-63
2023/07/12 05:11:26;;;;;;;11.75;7.63;;;;;;;28.25;49.70;99949.75;5059595;28;20035;-64
2023/07/12 05:13:51;;;;;;;11.30;7.32;;;;;;;28.43;49.84;99942.94;5059558;28;20044;-63
2023/07/12 05:16:17;;;;;;;12.13;7.10;;;;;;;28.65;50.38;99937.16;5058871;28;20039;-63
2023/07/12 05:18:42;;;;;;;12.48;7.22;;;;;;;28.84;50.45;99937.41;5059109;28;20239;-63
2023/07/12 05:21:08;;;;;;;13.02;7.35;;;;;;;28.90;48.96;99939.84;5059742;28;20048;-63
2023/07/12 05:23:36;;;;;;;9.02;7.47;;;;;;;29.05;48.47;99941.69;5059932;28;20116;-63
2023/07/12 05:26:01;;;;;;;11.40;7.72;;;;;;;29.16;47.50;99947.97;5059850;28;20035;-64
2023/07/12 05:28:28;;;;;;;10.25;7.10;;;;;;;29.36;46.97;99945.13;5059380;28;20040;-63
2023/07/12 05:30:54;;;;;;;11.00;7.22;;;;;;;29.55;47.09;99946.13;5059769;28;20043;-63
2023/07/12 05:33:19;;;;;;;11.13;7.05;;;;;;;29.64;46.20;99946.34;5059935;28;20068;-64
2023/07/12 05:35:46;;;;;;;11.57;7.80;;;;;;;29.74;44.99;99942.75;5059345;28;20043;-63
2023/07/12 05:38:11;;;;;;;10.05;7.28;;;;;;;29.78;44.34;99941.06;5059887;28;20218;-64
2023/07/12 05:40:37;;;;;;;10.57;7.00;;;;;;;29.94;44.84;99947.25;5059430;28;20037;-63
2023/07/12 05:43:03;;;;;;;9.95;7.45;;;;;;;30.07;45.67;99949.34;5059108;28;20052;-63
2023/07/12 05:45:28;;;;;;;9.65;8.43;;;;;;;30.29;49.57;99946.19;5059204;28;20048;-64
2023/07/12 05:47:54;;;;;;;11.80;8.93;;;;;;;30.45;50.31;99948.47;5058978;28;20257;-64
2023/07/12 05:50:20;;;;;;;14.15;9.32;;;;;;;30.49;48.38;99935.88;5059394;28;20036;-64
2023/07/12 05:52:46;;;;;;;11.80;9.55;;;;;;;30.71;48.22;99940.03;5059713;28;20334;-64
2023/07/12 05:55:15;;;;;;;11.27;8.73;;;;;;;30.75;47.03;99941.91;5059514;28;20231;-63
2023/07/12 05:57:40;;;;;;;11.43;8.60;;;;;;;30.93;46.75;99943.06;5059311;28;20089;-64
2023/07/12 06:00:10;;;;;;;9.85;8.57;;;;;;;31.07;46.33;99934.97;5059066;28;20045;-63
2023/07/12 06:02:36;;;;;;;10.95;8.93;;;;;;;31.26;45.38;99940.53;5058601;28;20111;-64
2023/07/12 06:05:02;;;;;;;9.93;8.65;;;;;;;31.41;45.05;99948.53;5059430;28;20040;-65
2023/07/12 06:07:28;;;;;;;12.27;8.35;;;;;;;31.56;45.17;99951.03;5058750;28;20099;-63
2023/07/12 06:09:53;;;;;;;10.93;8.05;;;;;;;31.64;44.31;99953.13;5059111;28;20134;-63
2023/07/12 06:12:19;;;;;;;9.75;8.32;;;;;;;31.79;42.96;99952.09;5058781;28;20036;-64
2023/07/12 06:14:45;;;;;;;12.23;8.75;;;;;;;31.85;43.15;99950.09;5058843;28;20036;-64
2023/07/12 06:17:10;;;;;;;11.35;8.35;;;;;;;31.74;42.64;99953.00;5058359;28;20032;-64
2023/07/12 06:19:35;;;;;;;9.82;8.82;;;;;;;31.86;42.27;99955.28;5057741;28;20389;-64
2023/07/12 06:22:01;;;;;;;13.80;8.57;;;;;;;31.92;42.96;99953.28;5057373;28;20052;-64
2023/07/12 06:24:26;;;;;;;10.68;8.10;;;;;;;32.04;42.27;99945.41;5056746;28;20044;-63
2023/07/12 06:26:52;;;;;;;11.98;8.57;;;;;;;32.12;40.21;99941.16;5057285;28;20047;-63
2023/07/12 06:29:17;;;;;;;16.70;9.13;;;;;;;32.16;40.88;99934.78;5057281;28;20043;-64
2023/07/12 06:31:43;;;;;;;14.63;8.77;;;;;;;32.21;40.16;99934.69;5057090;28;20066;-63
2023/07/12 06:34:10;;;;;;;13.95;9.02;;;;;;;32.17;39.49;99943.81;5056959;28;20040;-63
2023/07/12 06:36:36;;;;;;;17.92;9.10;;;;;;;32.26;40.02;99936.59;5056656;28;20057;-63
2023/07/12 06:39:02;;;;;;;17.25;8.77;;;;;;;32.32;38.73;99935.41;5057101;28;20040;-63
2023/07/12 06:41:28;;;;;;;13.10;8.48;;;;;;;32.37;39.88;99932.56;5056831;28;20037;-63
2023/07/12 06:43:53;;;;;;;12.85;8.25;;;;;;;32.57;39.80;99934.94;5057036;28;20044;-64
2023/07/12 06:46:18;;;;;;;8.77;6.90;;;;;;;32.56;36.25;99937.97;5056915;28;20056;-64
2023/07/12 06:48:45;;;;;;;10.98;7.30;;;;;;;32.58;35.96;99933.00;5057604;28;20071;-63
2023/07/12 06:51:10;;;;;;;11.15;7.32;;;;;;;32.62;35.71;99934.81;5055823;28;20029;-63
2023/07/12 06:53:36;;;;;;;14.52;7.63;;;;;;;32.69;35.97;99928.94;5057147;28;20032;-64
2023/07/12 06:56:01;;;;;;;9.00;7.07;;;;;;;32.83;35.92;99920.75;5057649;28;20036;-64
2023/07/12 06:58:27;;;;;;;7.85;7.05;;;;;;;32.88;35.15;99926.94;5056656;28;20064;-64
2023/07/12 07:00:52;;;;;;;9.70;7.00;;;;;;;32.93;35.37;99915.06;5057186;28;20082;-64
2023/07/12 07:03:18;;;;;;;8.50;6.72;;;;;;;33.07;35.83;99926.81;5055049;28;20374;-64
2023/07/12 07:05:46;;;;;;;9.88;7.22;;;;;;;33.33;36.26;99927.16;5056764;28;20143;-63
2023/07/12 07:08:14;;;;;;;8.27;6.90;;;;;;;33.47;34.22;99927.91;5056444;28;20037;-64
2023/07/12 07:10:40;;;;;;;9.18;6.95;;;;;;;33.58;34.46;99931.25;5056491;28;20060;-64
2023/07/12 07:13:05;;;;;;;7.78;6.40;;;;;;;33.66;33.48;99925.00;5056761;28;20056;-64
2023/07/12 07:15:31;;;;;;;9.60;7.13;;;;;;;33.71;33.59;99926.81;5056586;28;20053;-64
2023/07/12 07:17:57;;;;;;;9.57;6.72;;;;;;;33.88;33.35;99929.72;5055964;28;20036;-64
2023/07/12 07:20:23;;;;;;;7.53;6.38;;;;;;;33.93;31.99;99926.84;5056265;28;20052;-64
2023/07/12 07:22:49;;;;;;;9.40;6.30;;;;;;;33.94;33.20;99931.22;5056490;28;20029;-64
2023/07/12 07:25:14;;;;;;;10.60;6.65;;;;;;;34.17;33.30;99929.28;5056463;28;20916;-64
2023/07/12 07:27:40;;;;;;;8.10;6.03;;;;;;;34.41;33.13;99926.22;5056210;28;20033;-64
2023/07/12 07:30:06;;;;;;;9.60;6.03;;;;;;;34.41;31.96;99926.22;5056269;28;20261;-64
2023/07/12 07:32:32;;;;;;;11.65;5.97;;;;;;;34.63;32.48;99928.91;5056155;28;20209;-64
2023/07/12 07:34:57;;;;;;;8.48;6.10;;;;;;;34.74;31.79;99932.19;5055482;28;20046;-64
2023/07/12 07:37:23;;;;;;;10.05;6.13;;;;;;;34.94;32.52;99925.34;5056335;28;20025;-64
2023/07/12 07:39:48;;;;;;;8.27;6.25;;;;;;;34.93;30.89;99924.53;5055961;28;20036;-64
2023/07/12 07:42:14;;;;;;;7.78;5.75;;;;;;;34.86;30.30;99929.69;5055551;28;20040;-64
2023/07/12 07:44:39;;;;;;;8.68;5.80;;;;;;;34.89;30.94;99927.09;5055968;28;20327;-64
2023/07/12 07:47:05;;;;;;;9.25;5.60;;;;;;;34.90;30.12;99922.41;5055968;28;20179;-64
2023/07/12 07:49:30;;;;;;;9.68;6.05;;;;;;;34.98;30.16;99927.13;5056350;28;20063;-64
2023/07/12 07:51:56;;;;;;;7.57;5.97;;;;;;;34.81;31.48;99925.09;5056413;28;20069;-64
2023/07/12 07:54:21;;;;;;;9.60;6.38;;;;;;;34.88;30.21;99928.22;5056804;28;20371;-64
2023/07/12 07:56:50;;;;;;;10.27;6.10;;;;;;;35.03;30.32;99918.72;5056660;28;20265;-64
2023/07/12 07:59:15;;;;;;;10.68;6.47;;;;;;;35.24;30.88;99921.66;5056511;28;20327;-64
2023/07/12 08:01:41;;;;;;;9.85;6.35;;;;;;;35.35;30.22;99924.94;5056735;28;20047;-64
2023/07/12 08:04:08;;;;;;;7.28;5.80;;;;;;;35.32;29.68;99923.66;5056954;28;20075;-64
2023/07/12 08:06:35;;;;;;;6.93;6.28;;;;;;;35.48;29.38;99921.25;5056202;28;20397;-64
2023/07/12 08:09:01;;;;;;;6.85;6.00;;;;;;;35.59;29.64;99911.56;5057842;28;20040;-64
2023/07/12 08:11:26;;;;;;;6.82;6.05;;;;;;;35.78;29.36;99914.78;5059668;28;20037;-64
2023/07/12 08:13:52;;;;;;;6.15;5.55;;;;;;;36.02;27.97;99927.25;5059446;28;20040;-64
2023/07/12 08:16:17;;;;;;;11.98;6.18;;;;;;;36.06;29.33;99926.28;5059616;28;20366;-64
2023/07/12 08:18:43;;;;;;;7.28;6.18;;;;;;;36.09;28.03;99925.63;5058856;28;20219;-64
2023/07/12 08:21:08;;;;;;;7.75;6.13;;;;;;;36.29;27.40;99926.09;5059551;28;20302;-64
2023/07/12 08:23:34;;;;;;;9.30;6.38;;;;;;;36.13;28.03;99921.06;5058813;28;20270;-64
2023/07/12 08:25:59;;;;;;;6.50;5.90;;;;;;;36.20;26.75;99925.28;5059228;28;20039;-64
2023/07/12 08:28:25;;;;;;;8.68;6.43;;;;;;;36.23;29.91;99924.63;5059692;28;20039;-64
2023/07/12 08:30:50;;;;;;;7.32;6.10;;;;;;;36.35;27.85;99919.25;5060073;28;20045;-64
2023/07/12 08:33:16;;;;;;;6.55;5.53;;;;;;;36.49;27.45;99911.59;5059899;28;20044;-64
2023/07/12 08:35:43;;;;;;;8.23;6.60;;;;;;;36.57;28.01;99902.50;5054157;28;20021;-64
2023/07/12 08:38:08;;;;;;;8.40;6.40;;;;;;;36.65;28.65;99895.31;5045782;28;20084;-64
2023/07/12 08:40:41;;;;;;;7.07;6.18;;;;;;;36.62;28.05;99898.72;5055676;28;20041;-64
2023/07/12 08:43:11;;;;;;;;;;;;;;;36.66;26.24;99894.16;5057900;28;20121;-64
2023/07/12 08:45:37;;;;;;;7.45;6.55;;;;;;;36.75;29.27;99892.19;5039297;28;20222;-64
2023/07/12 08:48:08;;;;;;;8.48;6.22;;;;;;;36.62;29.46;99898.72;5039356;28;20053;-63
2023/07/12 08:50:45;;;;;;;6.82;6.13;;;;;;;36.61;27.18;99892.41;5039709;28;20033;-64
2023/07/12 08:53:14;;;;;;;9.18;6.25;;;;;;;36.55;27.79;99896.50;5054365;28;20037;-64
2023/07/12 08:55:41;;;;;;;8.85;6.53;;;;;;;36.38;27.60;99897.34;5059531;28;20047;-64
2023/07/12 08:58:18;;;;;;;7.10;6.00;;;;;;;36.63;28.02;99901.16;5059214;28;20037;-64
2023/07/12 09:00:47;;;;;;;8.82;6.65;;;;;;;36.70;28.96;99912.50;5059104;28;20075;-64
2023/07/12 09:03:12;;;;;;;6.95;5.85;;;;;;;36.71;28.51;99914.09;5059060;28;20317;-64
2023/07/12 09:05:37;;;;;;;7.13;6.10;;;;;;;36.46;28.53;99909.50;5059464;28;20037;-63
2023/07/12 09:08:13;;;;;;;8.38;6.28;;;;;;;36.22;29.05;99907.25;5059020;28;20041;-64
2023/07/12 09:10:39;;;;;;;8.40;6.20;;;;;;;36.20;27.92;99914.25;5040931;28;20190;-64
2023/07/12 09:13:05;;;;;;;7.95;6.97;;;;;;;35.87;29.04;99914.78;5039682;28;20424;-64
2023/07/12 09:15:36;;;;;;;8.60;6.20;;;;;;;35.74;29.87;99907.50;5039745;28;20033;-64
2023/07/12 09:18:06;;;;;;;7.82;6.95;;;;;;;35.67;28.86;99907.16;5039508;28;20048;-63
2023/07/12 09:20:34;;;;;;;7.35;6.43;;;;;;;35.80;31.58;99906.19;5039028;28;20049;-64
2023/07/12 09:23:00;;;;;;;7.60;6.18;;;;;;;35.84;31.33;99907.19;5039737;28;20068;-64
2023/07/12 09:25:35;;;;;;;7.38;6.70;;;;;;;35.84;30.22;99901.69;5040009;28;20252;-64
2023/07/12 09:28:01;;;;;;;9.38;6.13;;;;;;;35.88;30.40;99899.88;5040587;28;20446;-65
2023/07/12 09:30:29;;;;;;;8.45;6.13;;;;;;;35.87;29.89;99901.03;5039889;28;20075;-64
2023/07/12 09:32:56;;;;;;;6.80;6.18;;;;;;;35.81;30.09;99899.56;5039428;28;20068;-64
2023/07/12 09:35:29;;;;;;;7.03;5.80;;;;;;;35.81;29.59;99903.13;5039292;28;20029;-64
2023/07/12 09:38:02;;;;;;;;;;;;;;;35.82;30.97;99898.44;5040342;28;20096;-64
2023/07/12 09:40:42;;;;;;;6.43;5.70;;;;;;;35.80;31.58;99901.50;5039107;28;19944;-64
2023/07/12 09:43:26;;;;;;;9.40;6.43;;;;;;;35.71;30.29;99913.66;5043990;28;20047;-64
2023/07/12 09:46:00;;;;;;;6.28;5.43;;;;;;;35.58;30.65;99909.94;5058674;28;20029;-63
2023/07/12 09:48:48;;;;;;;8.25;6.20;;;;;;;35.40;30.25;99903.59;5058875;28;20109;-64
2023/07/12 09:51:23;;;;;;;6.30;5.65;;;;;;;35.26;29.90;99899.31;5048583;28;20040;-64
2023/07/12 09:53:56;;;;;;;12.00;7.30;;;;;;;35.22;31.71;99910.16;5059038;28;20055;-64
2023/07/12 09:56:36;;;;;;;10.85;7.45;;;;;;;35.19;33.42;99899.81;5059007;28;20063;-64
2023/07/12 09:59:05;;;;;;;8.27;7.07;;;;;;;35.07;32.26;99894.13;5059078;28;20502;-64
2023/07/12 10:02:08;;;;;;;6.95;6.25;;;;;;;35.17;30.11;99896.56;5059286;28;20194;-64
2023/07/12 10:04:34;;;;;;;;;;;;;;;35.26;30.74;99891.06;5018138;28;20052;-64
2023/07/12 10:07:09;;;;;;;9.57;6.83;;;;;;;35.03;33.79;99880.19;5059801;28;19986;-64
2023/07/12 10:09:38;;;;;;;6.78;6.13;;;;;;;34.70;32.14;99887.22;5058672;28;20838;-63
2023/07/12 10:12:28;;;;;;;7.30;6.20;;;;;;;34.21;34.15;99878.88;5058243;28;20075;-63
2023/07/12 10:14:54;;;;;;;8.70;7.13;;;;;;;34.00;34.25;99877.78;5058917;28;20067;-64
2023/07/12 10:17:41;;;;;;;7.35;6.65;;;;;;;34.10;33.74;99857.47;5058818;28;20070;-63
2023/07/12 10:20:17;;;;;;;7.97;7.10;;;;;;;34.15;33.07;99852.66;5057879;28;20254;-64
2023/07/12 10:22:44;;;;;;;7.18;6.32;;;;;;;34.15;35.79;99855.41;5058437;28;20352;-63
2023/07/12 10:25:27;;;;;;;11.93;7.68;;;;;;;34.12;34.18;99845.03;5059165;28;20265;-64
2023/07/12 10:28:22;;;;;;;8.18;6.40;;;;;;;34.20;33.81;99848.94;5058872;28;20213;-64
2023/07/12 10:30:50;;;;;;;11.57;7.10;;;;;;;34.28;33.66;99838.00;5049162;28;20332;-64
2023/07/12 10:33:26;;;;;;;9.18;6.85;;;;;;;34.31;32.00;99838.50;5057192;28;20068;-63
2023/07/12 10:35:59;;;;;;;8.00;6.75;;;;;;;34.31;33.53;99842.03;5058285;28;20040;-64
2023/07/12 10:38:25;;;;;;;9.10;6.90;;;;;;;34.26;35.96;99840.25;5058732;28;20399;-64
2023/07/12 10:40:57;;;;;;;8.85;6.78;;;;;;;34.20;34.94;99827.78;5057946;28;20079;-65
2023/07/12 10:43:26;;;;;;;8.38;6.72;;;;;;;34.26;34.84;99837.50;5058372;28;20049;-63
2023/07/12 10:45:56;;;;;;;10.10;7.18;;;;;;;34.31;36.10;99833.78;5057835;28;20036;-63
2023/07/12 10:48:27;;;;;;;9.00;7.07;;;;;;;34.25;35.87;99827.63;5057731;28;20327;-63
2023/07/12 10:51:11;;;;;;;7.22;6.47;;;;;;;34.20;39.58;99832.47;5058118;28;20338;-63
2023/07/12 10:53:49;;;;;;;7.45;6.63;;;;;;;34.19;36.56;99828.91;5058353;28;20114;-63
2023/07/12 10:56:27;;;;;;;7.80;6.55;;;;;;;34.22;36.66;99832.94;5058757;28;20041;-63
2023/07/12 10:58:58;;;;;;;10.23;7.00;;;;;;;34.14;37.45;99828.22;5058535;28;20043;-62
2023/07/12 11:01:41;;;;;;;7.65;6.75;;;;;;;34.20;37.23;99822.28;5057964;28;20048;-62
2023/07/12 11:04:12;;;;;;;8.50;6.40;;;;;;;34.26;37.29;99817.44;5057174;28;20111;-62
2023/07/12 11:06:55;;;;;;;8.32;6.53;;;;;;;34.31;38.64;99820.06;5057355;28;20041;-63
2023/07/12 11:09:21;;;;;;;9.32;6.45;;;;;;;34.17;34.46;99814.66;5057355;28;20326;-63
2023/07/12 11:11:57;;;;;;;7.30;6.38;;;;;;;34.14;34.44;99803.50;5056812;28;20045;-62
2023/07/12 11:14:26;;;;;;;7.32;6.30;;;;;;;34.05;37.27;99819.13;5057741;28;20037;-62
2023/07/12 11:17:06;;;;;;;9.65;6.97;;;;;;;33.99;39.68;99809.41;5057178;28;20264;-62
2023/07/12 11:19:40;;;;;;;8.65;7.07;;;;;;;33.95;37.98;99810.03;5040540;28;20103;-63
2023/07/12 11:22:21;;;;;;;8.35;6.75;;;;;;;33.92;37.82;99810.66;5037760;28;20048;-65
2023/07/12 11:24:58;;;;;;;8.20;6.90;;;;;;;33.84;37.64;99803.19;5051918;28;20040;-65
2023/07/12 11:27:44;;;;;;;8.05;6.82;;;;;;;33.93;38.72;99811.47;5057650;28;20103;-63
2023/07/12 11:30:26;;;;;;;10.23;7.57;;;;;;;33.90;35.14;99796.44;5015828;28;20091;-63
2023/07/12 11:33:08;;;;;;;15.32;7.53;;;;;;;33.91;36.28;99789.00;5057021;28;20040;-63
2023/07/12 11:36:18;;;;;;;7.50;6.80;;;;;;;33.94;34.60;99799.38;5056909;28;20103;-62